createdAt,value
2022-11-16T00:00:23.514Z,5.91
2022-11-16T00:02:52.197Z,5.89
2022-11-16T00:05:28.001Z,5.86
2022-11-16T00:07:57.879Z,5.84
2022-11-16T00:10:26.002Z,5.91
2022-11-16T00:12:54.124Z,5.90
2022-11-16T00:15:24.010Z,5.89
2022-11-16T00:17:52.479Z,5.91
2022-11-16T00:20:20.790Z,5.91
2022-11-16T00:22:49.963Z,5.91
2022-11-16T00:25:22.744Z,5.96
2022-11-16T00:28:02.123Z,5.93
2022-11-16T00:30:30.281Z,5.98
2022-11-16T00:33:06.936Z,5.96
2022-11-16T00:35:40.083Z,5.95
2022-11-16T00:38:08.748Z,5.95
2022-11-16T00:40:40.248Z,5.97
2022-11-16T00:43:08.640Z,5.99
2022-11-16T00:45:39.925Z,6.04
2022-11-16T00:48:08.111Z,6.01
2022-11-16T00:50:36.786Z,5.98
2022-11-16T00:53:06.957Z,6.10
2022-11-16T00:55:35.015Z,6.05
2022-11-16T00:58:04.333Z,6.15
2022-11-16T01:00:32.239Z,6.12
2022-11-16T01:03:02.658Z,6.14
2022-11-16T01:05:31.046Z,6.23
2022-11-16T01:07:59.189Z,6.22
2022-11-16T01:10:34.373Z,6.14
2022-11-16T01:13:06.982Z,6.17
2022-11-16T01:15:35.087Z,6.17
2022-11-16T01:18:03.213Z,6.14
2022-11-16T01:20:32.062Z,6.17
2022-11-16T01:23:00.193Z,6.17
2022-11-16T01:25:29.610Z,6.21
2022-11-16T01:27:57.890Z,6.17
2022-11-16T01:30:48.704Z,6.19
2022-11-16T01:33:16.822Z,6.20
2022-11-16T01:35:45.142Z,6.18
2022-11-16T01:38:15.622Z,6.27
2022-11-16T01:40:44.093Z,6.33
2022-11-16T01:43:20.682Z,6.32
2022-11-16T01:45:49.048Z,6.33
2022-11-16T01:48:24.943Z,6.34
2022-11-16T01:50:54.140Z,6.35
2022-11-16T01:53:22.502Z,6.36
2022-11-16T01:55:57.151Z,6.38
2022-11-16T01:58:30.921Z,6.36
2022-11-16T02:01:07.465Z,6.38
2022-11-16T02:03:45.385Z,6.45
2022-11-16T02:06:17.011Z,6.48
2022-11-16T02:09:34.877Z,6.40
2022-11-16T02:13:35.383Z,6.46
2022-11-16T02:16:52.643Z,6.45
2022-11-16T02:19:51.821Z,6.50
2022-11-16T02:22:27.796Z,6.51
2022-11-16T02:25:05.352Z,6.53
2022-11-16T02:27:52.780Z,6.57
2022-11-16T02:30:20.815Z,6.55
2022-11-16T02:32:59.224Z,6.54
2022-11-16T02:35:33.397Z,6.54
2022-11-16T02:38:09.951Z,6.53
2022-11-16T02:40:45.625Z,6.57
2022-11-16T02:43:32.648Z,6.53
2022-11-16T02:46:05.505Z,6.58
2022-11-16T02:48:39.384Z,6.60
2022-11-16T02:51:08.672Z,6.62
2022-11-16T02:53:42.742Z,6.65
2022-11-16T02:56:13.933Z,6.63
2022-11-16T02:58:42.804Z,6.63
2022-11-16T03:01:21.783Z,6.59
2022-11-16T03:03:53.048Z,6.63
2022-11-16T03:06:30.112Z,6.64
2022-11-16T03:09:15.362Z,6.62
2022-11-16T03:12:03.690Z,6.64
2022-11-16T03:14:47.248Z,6.61
2022-11-16T03:17:22.890Z,6.60
2022-11-16T03:20:02.515Z,6.61
2022-11-16T03:22:42.472Z,6.61
2022-11-16T03:25:14.632Z,6.53
2022-11-16T03:28:05.848Z,6.63
2022-11-16T03:30:47.903Z,6.56
2022-11-16T03:33:20.768Z,6.62
2022-11-16T03:36:06.859Z,6.58
2022-11-16T03:38:35.916Z,6.59
2022-11-16T03:41:07.442Z,6.62
2022-11-16T03:43:36.360Z,6.58
2022-11-16T03:46:05.989Z,6.58
2022-11-16T03:48:36.082Z,6.57
2022-11-16T03:51:13.673Z,6.65
2022-11-16T03:53:52.780Z,6.65
2022-11-16T03:56:21.192Z,6.64
2022-11-16T03:59:17.933Z,6.65
2022-11-16T04:01:46.780Z,6.63
2022-11-16T04:04:36.321Z,6.61
2022-11-16T04:07:26.817Z,6.61
2022-11-16T04:10:13.404Z,6.60
2022-11-16T04:13:02.263Z,6.60
2022-11-16T04:15:48.765Z,6.64
2022-11-16T04:18:35.460Z,6.67
2022-11-16T04:21:24.186Z,6.59
2022-11-16T04:24:10.204Z,6.66
2022-11-16T04:26:57.436Z,6.62
2022-11-16T04:29:25.657Z,6.60
2022-11-16T04:32:12.214Z,6.62
2022-11-16T04:34:58.668Z,6.68
2022-11-16T04:37:45.623Z,6.67
2022-11-16T04:40:16.695Z,6.69
2022-11-16T04:43:00.361Z,6.69
2022-11-16T04:45:51.266Z,6.57
2022-11-16T04:48:21.688Z,6.68
2022-11-16T04:50:53.511Z,6.65
2022-11-16T04:53:25.148Z,6.65
2022-11-16T04:56:01.196Z,6.63
2022-11-16T04:58:31.463Z,6.70
2022-11-16T05:01:00.392Z,6.72
2022-11-16T05:03:32.659Z,6.65
2022-11-16T05:06:04.089Z,6.69
2022-11-16T05:08:33.339Z,6.66
2022-11-16T05:11:01.987Z,6.65
2022-11-16T05:13:30.653Z,6.68
2022-11-16T05:16:01.677Z,6.74
2022-11-16T09:14:59.345Z,8.93
2022-11-16T09:17:28.007Z,8.90
2022-11-16T09:19:57.064Z,8.99
2022-11-16T09:22:25.997Z,9.15
2022-11-16T09:24:58.278Z,9.20
2022-11-16T09:27:30.755Z,9.18
2022-11-16T09:30:02.329Z,9.26
2022-11-16T09:32:30.527Z,9.32
2022-11-16T09:35:02.118Z,9.21
2022-11-16T09:37:43.394Z,9.23
2022-11-16T09:40:14.514Z,9.08
2022-11-16T09:43:07.157Z,9.03
2022-11-16T09:45:38.421Z,9.04
2022-11-16T09:48:17.854Z,9.23
2022-11-16T09:51:25.308Z,9.28
2022-11-16T09:54:08.394Z,9.29
2022-11-16T09:56:48.025Z,9.37
2022-11-16T09:59:26.651Z,9.47
2022-11-16T10:02:21.484Z,9.59
2022-11-16T10:05:12.892Z,9.66
2022-11-16T10:07:50.859Z,9.69
2022-11-16T10:10:45.397Z,9.73
2022-11-16T10:13:43.656Z,9.61
2022-11-16T10:16:46.859Z,9.74
2022-11-16T10:21:16.762Z,9.67
2022-11-16T10:24:32.477Z,9.81
2022-11-16T10:28:12.084Z,9.95
2022-11-16T10:31:42.565Z,9.96
2022-11-16T10:38:34.611Z,9.99
2022-11-16T10:41:39.362Z,9.99
2022-11-16T10:44:44.520Z,9.90
2022-11-16T10:47:23.414Z,9.85
2022-11-16T10:50:05.387Z,9.93
2022-11-16T10:54:00.950Z,9.89
2022-11-16T10:57:00.980Z,9.72
2022-11-16T10:59:48.707Z,9.66
2022-11-16T11:02:38.014Z,9.68
2022-11-16T11:05:25.967Z,9.57
2022-11-16T11:08:12.532Z,9.69
2022-11-16T11:10:56.678Z,9.69
2022-11-16T11:13:30.153Z,9.81
2022-11-16T11:16:17.914Z,9.83
2022-11-16T11:18:57.521Z,9.91
2022-11-16T11:21:26.099Z,9.77
2022-11-16T11:24:10.596Z,9.83
2022-11-16T11:26:51.314Z,9.88
2022-11-16T11:29:27.800Z,9.92
2022-11-16T11:32:06.020Z,9.88
2022-11-16T11:34:40.328Z,9.93
2022-11-16T11:37:21.129Z,9.99
2022-11-16T11:40:04.837Z,9.85
2022-11-16T11:42:34.011Z,9.87
2022-11-16T11:45:13.693Z,9.99
2022-11-16T11:48:15.312Z,9.98
2022-11-16T11:51:17.071Z,9.97
2022-11-16T11:53:58.638Z,10.03
2022-11-16T11:56:39.011Z,10.08
2022-11-16T11:59:14.072Z,10.04
2022-11-16T12:02:19.639Z,10.08
2022-11-16T12:05:15.835Z,10.12
2022-11-16T12:07:52.563Z,10.04
2022-11-16T12:10:28.147Z,10.03
2022-11-16T12:13:27.660Z,10.02
2022-11-16T12:16:18.105Z,10.00
2022-11-16T12:19:13.155Z,10.01
2022-11-16T12:22:06.150Z,9.98
2022-11-16T12:24:46.068Z,9.95
2022-11-16T12:27:50.541Z,9.83
2022-11-16T12:30:26.569Z,9.79
2022-11-16T12:33:13.742Z,9.89
2022-11-16T12:35:55.001Z,9.86
2022-11-16T12:38:42.168Z,9.77
2022-11-16T12:41:35.759Z,9.82
2022-11-16T12:44:12.094Z,9.71
2022-11-16T12:47:13.195Z,9.71
2022-11-16T12:50:35.439Z,9.75
2022-11-16T12:53:22.007Z,9.65
2022-11-16T12:55:59.210Z,9.65
2022-11-16T12:58:53.057Z,9.68
2022-11-16T13:01:30.993Z,9.65
2022-11-16T13:04:06.615Z,9.66
2022-11-16T13:06:41.632Z,9.70
2022-11-16T13:09:16.697Z,9.68
2022-11-16T13:11:56.274Z,9.67
2022-11-16T13:14:29.603Z,9.63
2022-11-16T13:16:58.712Z,9.62
2022-11-16T13:19:32.496Z,9.62
2022-11-16T13:22:08.003Z,9.63
2022-11-16T13:24:59.057Z,9.63
2022-11-16T13:27:39.865Z,9.64
2022-11-16T13:30:23.936Z,9.64
2022-11-16T13:33:14.612Z,9.62
2022-11-16T13:35:43.164Z,9.61
2022-11-16T13:38:14.690Z,9.59
2022-11-16T13:40:46.046Z,9.51
2022-11-16T13:43:17.794Z,9.52
2022-11-16T13:46:00.059Z,9.52
2022-11-16T13:48:38.429Z,9.54
2022-11-16T13:51:11.155Z,9.53
2022-11-16T13:56:49.228Z,9.47
2022-11-16T13:59:17.488Z,9.47
2022-11-16T14:01:59.604Z,9.46
2022-11-16T14:04:42.275Z,9.39
2022-11-16T14:07:37.302Z,9.41
2022-11-16T14:10:06.231Z,9.45
2022-11-16T17:00:50.527Z,8.99
2022-11-16T17:03:20.812Z,8.97
2022-11-16T17:05:49.247Z,9.02
2022-11-16T17:08:17.096Z,9.05
2022-11-16T17:10:45.242Z,9.05
2022-11-16T17:13:13.353Z,9.06
2022-11-16T17:22:56.473Z,9.11
2022-11-16T17:25:28.307Z,9.07
2022-11-16T17:27:56.377Z,9.01
2022-11-16T17:30:24.017Z,9.07
2022-11-16T17:32:51.871Z,9.00
2022-11-16T17:35:19.656Z,9.07
2022-11-16T17:37:48.812Z,9.02
2022-11-16T17:40:17.912Z,9.14
2022-11-16T17:42:46.301Z,9.15
2022-11-16T17:45:14.089Z,9.16
2022-11-16T17:47:42.100Z,9.10
2022-11-16T17:50:10.256Z,9.16
2022-11-16T17:52:41.076Z,9.08
2022-11-16T17:55:09.309Z,9.18
2022-11-16T17:57:36.968Z,9.12
2022-11-16T18:00:05.232Z,9.15
2022-11-16T18:02:36.093Z,9.11
2022-11-16T18:05:03.915Z,9.11
2022-11-16T18:07:33.703Z,9.17
2022-11-16T18:10:01.671Z,9.08
2022-11-16T18:12:29.593Z,9.10
2022-11-16T18:15:26.471Z,9.16
2022-11-16T18:17:46.734Z,9.06
2022-11-16T18:20:14.567Z,9.05
2022-11-16T18:22:42.347Z,9.07
2022-11-16T18:25:10.013Z,9.06
2022-11-16T18:27:38.073Z,9.18
2022-11-16T18:30:07.673Z,9.18
2022-11-16T18:32:37.218Z,9.14
2022-11-16T18:35:10.126Z,9.06
2022-11-16T18:37:39.255Z,9.11
2022-11-16T18:40:08.392Z,9.11
2022-11-16T18:42:36.942Z,9.06
2022-11-16T18:45:05.085Z,9.11
2022-11-16T18:47:35.333Z,9.06
2022-11-16T18:50:03.146Z,9.06
2022-11-16T18:52:31.289Z,9.06
2022-11-16T18:54:59.062Z,9.06
2022-11-16T18:57:27.447Z,9.04
2022-11-16T18:59:55.210Z,9.08
2022-11-16T19:02:23.264Z,9.08
2022-11-16T19:04:51.530Z,9.05
2022-11-16T19:07:19.864Z,9.07
2022-11-16T19:09:47.987Z,9.04
2022-11-16T19:12:15.868Z,9.05
2022-11-16T19:14:43.747Z,9.03
2022-11-16T19:17:11.549Z,9.05
2022-11-16T19:19:40.820Z,9.04
2022-11-16T19:22:08.908Z,8.98
2022-11-16T19:24:37.481Z,9.05
2022-11-16T19:27:05.402Z,9.05
2022-11-16T19:29:33.314Z,9.03
2022-11-16T19:32:01.117Z,8.99
2022-11-16T19:34:33.322Z,9.01
2022-11-16T19:37:01.481Z,8.97
2022-11-16T19:39:29.395Z,8.91
2022-11-16T19:41:57.260Z,8.89
2022-11-16T19:44:25.174Z,8.94
2022-11-16T19:46:54.716Z,8.92
2022-11-16T19:49:22.711Z,8.81
2022-11-16T19:51:50.571Z,8.83
2022-11-16T19:54:19.816Z,8.89
2022-11-16T19:56:54.673Z,8.87
2022-11-16T19:59:23.065Z,8.82
2022-11-16T20:01:51.118Z,8.91
2022-11-16T20:04:19.104Z,8.81
2022-11-16T20:06:47.566Z,8.77
2022-11-16T20:09:15.720Z,8.70
2022-11-16T20:11:45.965Z,8.70
2022-11-16T20:14:15.151Z,8.74
2022-11-16T20:16:46.670Z,8.76
2022-11-16T20:19:15.339Z,8.73
2022-11-16T20:21:43.360Z,8.79
2022-11-16T20:24:12.911Z,8.78
2022-11-16T20:26:42.691Z,8.67
2022-11-16T20:29:12.507Z,8.76
2022-11-16T20:31:43.049Z,8.78
2022-11-16T20:34:15.727Z,8.71
2022-11-16T20:36:47.323Z,8.73
2022-11-16T20:39:16.338Z,8.69
2022-11-16T20:41:44.960Z,8.71
2022-11-16T20:44:16.640Z,8.75
2022-11-16T20:46:45.370Z,8.79
2022-11-16T20:49:13.434Z,8.71
2022-11-16T20:51:42.135Z,8.77
2022-11-16T20:54:10.336Z,8.67
2022-11-16T20:56:38.180Z,8.73
2022-11-16T20:59:06.184Z,8.73
2022-11-16T21:01:34.094Z,8.79
2022-11-16T21:04:04.126Z,8.74
2022-11-16T21:06:32.853Z,8.73
2022-11-16T21:09:00.919Z,8.75
2022-11-16T21:11:30.240Z,8.74
2022-11-16T21:14:16.605Z,8.73
2022-11-16T21:16:44.625Z,8.72
2022-11-16T21:19:12.784Z,8.70
2022-11-16T21:21:41.477Z,8.68
2022-11-16T21:24:09.670Z,8.74
2022-11-16T21:26:37.695Z,8.74
2022-11-16T21:29:05.733Z,8.71
2022-11-16T21:31:34.978Z,8.74
2022-11-16T21:34:02.808Z,8.78
2022-11-16T21:36:31.449Z,8.76
2022-11-16T21:38:59.595Z,8.68
2022-11-16T21:41:30.622Z,8.64
2022-11-16T21:43:58.377Z,8.65
2022-11-16T21:46:26.599Z,8.67
2022-11-16T21:48:56.745Z,8.68
2022-11-16T21:51:44.069Z,8.61
2022-11-16T21:54:11.815Z,8.58
2022-11-16T21:56:40.780Z,8.63
2022-11-16T21:59:08.460Z,8.61
2022-11-16T22:01:59.497Z,8.61
2022-11-16T22:04:47.130Z,8.53
2022-11-16T22:07:34.154Z,8.47
2022-11-16T22:10:03.039Z,8.45
2022-11-16T22:12:30.832Z,8.41
2022-11-16T22:14:58.927Z,8.39
2022-11-16T22:17:28.885Z,8.40
2022-11-16T22:20:00.462Z,8.49
2022-11-16T22:22:28.303Z,8.43
2022-11-16T22:24:56.373Z,8.45
2022-11-16T22:27:24.399Z,8.42
2022-11-16T22:29:52.604Z,8.43
2022-11-16T22:32:20.258Z,8.44
2022-11-16T22:34:48.417Z,8.41
2022-11-16T22:37:16.177Z,8.35
2022-11-16T22:39:44.409Z,8.37
2022-11-16T22:42:12.207Z,8.37
2022-11-16T22:44:40.474Z,8.34
2022-11-16T22:47:09.622Z,8.31
2022-11-16T22:49:37.626Z,8.38
2022-11-16T22:52:05.597Z,8.27
2022-11-16T22:54:37.974Z,8.27
2022-11-16T22:57:30.494Z,8.29
2022-11-16T22:59:58.264Z,8.35
2022-11-16T23:02:26.298Z,8.27
2022-11-16T23:04:54.106Z,8.31
